createdAt,value
2022-10-03T00:02:02.713Z,91.90
2022-10-03T00:04:53.701Z,92.14
2022-10-03T00:07:42.912Z,92.17
2022-10-03T00:10:25.626Z,91.95
2022-10-03T00:13:07.694Z,91.75
2022-10-03T00:15:45.133Z,91.79
2022-10-03T00:18:31.482Z,91.66
2022-10-03T00:21:22.103Z,91.55
2022-10-03T00:24:03.936Z,91.44
2022-10-03T00:26:50.957Z,91.36
2022-10-03T00:29:45.445Z,91.49
2022-10-03T00:32:43.692Z,91.32
2022-10-03T00:35:37.373Z,91.07
2022-10-03T00:38:28.206Z,90.84
2022-10-03T00:41:37.167Z,91.05
2022-10-03T00:44:53.329Z,91.12
2022-10-03T00:47:55.680Z,91.34
2022-10-03T00:50:54.798Z,91.08
2022-10-03T00:53:48.799Z,91.15
2022-10-03T00:56:52.999Z,91.13
2022-10-03T00:59:45.049Z,91.22
2022-10-03T01:02:31.712Z,90.60
2022-10-03T01:05:12.591Z,90.91
2022-10-03T01:08:20.802Z,91.12
2022-10-03T01:10:59.206Z,91.29
2022-10-03T01:13:43.002Z,90.77
2022-10-03T01:16:23.184Z,90.91
2022-10-03T01:19:05.154Z,90.60
2022-10-03T01:21:44.213Z,90.44
2022-10-03T01:24:51.929Z,90.96
2022-10-03T01:27:33.097Z,90.38
2022-10-03T01:30:22.629Z,90.68
2022-10-03T01:33:01.342Z,90.16
2022-10-03T01:35:40.519Z,90.85
2022-10-03T01:38:22.032Z,90.86
2022-10-03T01:41:03.157Z,90.79
2022-10-03T01:43:43.366Z,90.19
2022-10-03T01:46:22.892Z,90.32
2022-10-03T01:49:00.633Z,90.09
2022-10-03T01:51:39.583Z,90.58
2022-10-03T01:54:19.609Z,90.43
2022-10-03T01:56:57.828Z,90.09
2022-10-03T01:59:40.697Z,90.08
2022-10-03T02:02:18.741Z,90.17
2022-10-03T02:04:57.390Z,89.95
2022-10-03T02:07:36.162Z,89.99
2022-10-03T02:10:19.552Z,90.20
2022-10-03T02:12:57.583Z,90.16
2022-10-03T02:15:34.688Z,90.44
2022-10-03T02:18:16.250Z,90.39
2022-10-03T02:20:50.720Z,90.41
2022-10-03T02:23:39.500Z,90.45
2022-10-03T02:26:32.729Z,90.62
2022-10-03T02:29:26.704Z,90.47
2022-10-03T02:32:18.056Z,90.44
2022-10-03T02:35:39.049Z,90.43
2022-10-03T02:38:59.569Z,90.11
2022-10-03T02:42:03.013Z,90.08
2022-10-03T02:45:21.651Z,89.97
2022-10-03T02:48:34.391Z,89.99
2022-10-03T02:51:59.294Z,89.77
2022-10-03T02:55:04.382Z,89.82
2022-10-03T02:58:22.852Z,90.36
2022-10-03T03:01:45.681Z,89.89
2022-10-03T03:05:17.053Z,89.70
2022-10-03T03:08:24.529Z,89.92
2022-10-03T03:11:47.579Z,90.00
2022-10-03T03:15:05.634Z,89.80
2022-10-03T03:17:38.944Z,89.55
2022-10-03T03:20:31.926Z,89.78
2022-10-03T03:23:36.176Z,89.71
2022-10-03T03:26:28.107Z,90.08
2022-10-03T03:29:10.593Z,89.29
2022-10-03T03:31:47.965Z,89.63
2022-10-03T03:34:25.491Z,89.81
2022-10-03T03:37:03.023Z,89.70
2022-10-03T03:39:59.950Z,89.28
2022-10-03T03:43:20.030Z,89.61
2022-10-03T03:46:14.799Z,89.03
2022-10-03T03:49:10.078Z,89.05
2022-10-03T03:51:50.086Z,89.38
2022-10-03T03:54:54.510Z,88.93
2022-10-03T03:57:48.584Z,89.63
2022-10-03T04:00:20.903Z,89.60
2022-10-03T04:03:18.616Z,89.63
2022-10-03T04:06:05.846Z,89.41
2022-10-03T04:09:00.915Z,89.55
2022-10-03T04:11:45.008Z,89.33
2022-10-03T04:14:43.202Z,89.49
2022-10-03T04:17:55.115Z,89.44
2022-10-03T04:21:03.541Z,89.47
2022-10-03T04:23:51.193Z,89.78
2022-10-03T04:26:37.842Z,89.51
2022-10-03T04:29:42.699Z,89.84
2022-10-03T04:32:26.586Z,89.67
2022-10-03T04:35:26.425Z,89.64
2022-10-03T04:38:08.024Z,89.33
2022-10-03T04:40:49.267Z,89.01
2022-10-03T04:43:43.851Z,89.39
2022-10-03T04:46:29.082Z,89.45
2022-10-03T04:49:06.709Z,89.28
2022-10-03T04:51:55.210Z,89.66
2022-10-03T04:54:35.662Z,89.40
2022-10-03T04:57:11.997Z,89.51
2022-10-03T04:59:50.269Z,89.61
2022-10-03T05:02:43.506Z,89.91
2022-10-03T05:05:49.734Z,89.82
2022-10-03T05:08:34.755Z,89.95
2022-10-03T05:11:15.093Z,89.96
2022-10-03T05:14:00.518Z,90.03
2022-10-03T05:16:42.195Z,90.07
2022-10-03T05:19:42.611Z,90.04
2022-10-03T05:22:24.775Z,90.25
2022-10-03T05:25:04.536Z,90.50
2022-10-03T05:27:43.173Z,90.47
2022-10-03T05:30:20.238Z,90.29
2022-10-03T05:32:55.705Z,90.32
2022-10-03T05:35:36.099Z,90.14
2022-10-03T05:38:39.561Z,90.40
2022-10-03T05:41:25.808Z,90.71
2022-10-03T05:44:05.090Z,90.48
2022-10-03T05:46:58.708Z,90.73
2022-10-03T05:49:56.785Z,90.64
2022-10-03T05:52:58.156Z,90.80
2022-10-03T05:55:47.374Z,90.92
2022-10-03T05:58:52.453Z,91.06
2022-10-03T06:01:53.153Z,91.15
2022-10-03T06:05:03.885Z,90.95
2022-10-03T06:07:48.074Z,91.03
2022-10-03T06:10:50.832Z,91.29
2022-10-03T06:13:41.844Z,91.52
2022-10-03T06:16:30.225Z,91.42
2022-10-03T06:19:27.032Z,91.47
2022-10-03T06:23:05.958Z,91.52
2022-10-03T06:26:28.901Z,91.49
2022-10-03T06:29:47.525Z,91.48
2022-10-03T06:33:05.000Z,91.56
2022-10-03T06:36:12.755Z,91.46
2022-10-03T06:39:29.976Z,91.47
2022-10-03T06:43:04.920Z,91.75
2022-10-03T06:46:21.906Z,91.42
2022-10-03T06:49:34.546Z,91.70
2022-10-03T06:52:28.745Z,91.51
2022-10-03T06:55:31.990Z,91.46
2022-10-03T06:58:51.812Z,91.67
2022-10-03T07:01:50.827Z,91.68
2022-10-03T07:05:08.772Z,91.68
2022-10-03T07:08:24.400Z,91.56
2022-10-03T07:11:08.898Z,91.60
2022-10-03T07:14:14.924Z,91.41
2022-10-03T07:17:28.838Z,91.27
2022-10-03T07:20:30.536Z,91.11
2022-10-03T07:23:50.243Z,91.25
2022-10-03T07:27:00.446Z,90.60
2022-10-03T07:30:05.717Z,91.00
2022-10-03T07:33:21.477Z,91.23
2022-10-03T07:36:42.043Z,90.56
2022-10-03T07:39:51.337Z,90.47
2022-10-03T07:42:50.141Z,90.53
2022-10-03T07:45:42.383Z,90.65
2022-10-03T07:48:52.541Z,90.67
2022-10-03T07:51:30.373Z,90.57
2022-10-03T07:54:39.196Z,90.61
2022-10-03T07:57:48.598Z,89.75
2022-10-03T08:00:23.527Z,89.63
2022-10-03T08:03:52.320Z,89.73
2022-10-03T08:06:26.435Z,89.42
2022-10-03T08:09:32.445Z,89.74
2022-10-03T08:12:40.357Z,89.58
2022-10-03T08:15:14.665Z,88.99
2022-10-03T08:18:31.790Z,88.48
2022-10-03T08:21:02.083Z,88.27
2022-10-03T08:24:18.826Z,88.77
2022-10-03T08:27:13.832Z,88.15
2022-10-03T08:30:19.250Z,87.96
2022-10-03T08:33:41.631Z,87.74
2022-10-03T08:37:07.081Z,87.12
2022-10-03T08:40:20.140Z,86.76
2022-10-03T08:43:39.423Z,86.48
2022-10-03T08:46:47.697Z,86.33
2022-10-03T08:50:02.988Z,85.84
2022-10-03T08:52:56.870Z,85.45
2022-10-03T08:55:45.468Z,85.30
2022-10-03T08:59:07.113Z,84.72
2022-10-03T09:02:21.638Z,84.02
2022-10-03T09:05:48.051Z,83.91
2022-10-03T09:08:45.131Z,83.40
2022-10-03T09:11:58.298Z,83.07
2022-10-03T09:14:42.534Z,82.38
2022-10-03T09:18:05.259Z,82.11
2022-10-03T09:21:37.331Z,81.65
2022-10-03T09:24:45.678Z,80.89
2022-10-03T09:27:43.719Z,80.48
2022-10-03T09:30:25.025Z,79.52
2022-10-03T09:33:46.460Z,79.58
2022-10-03T09:37:02.187Z,78.92
2022-10-03T09:40:33.131Z,78.14
2022-10-03T09:43:38.852Z,77.83
2022-10-03T09:47:11.717Z,77.08
2022-10-03T09:50:31.802Z,76.64
2022-10-03T09:53:55.908Z,75.86
2022-10-03T09:56:54.298Z,75.49
2022-10-03T09:59:41.112Z,74.67
2022-10-03T10:02:40.764Z,74.29
2022-10-03T10:06:08.801Z,73.75
2022-10-03T10:09:23.379Z,73.03
2022-10-03T10:12:47.276Z,72.52
2022-10-03T10:16:13.193Z,71.68
2022-10-03T10:19:18.284Z,71.39
2022-10-03T10:22:10.394Z,70.74
2022-10-03T10:25:47.388Z,70.53
2022-10-03T10:29:00.249Z,70.50
2022-10-03T10:32:22.420Z,70.21
2022-10-03T10:35:29.071Z,69.69
2022-10-03T10:38:40.309Z,69.54
2022-10-03T10:42:00.666Z,69.02
2022-10-03T10:45:24.140Z,68.41
2022-10-03T10:49:02.801Z,68.33
2022-10-03T10:52:21.175Z,67.98
2022-10-03T10:55:46.084Z,67.05
2022-10-03T10:59:23.858Z,66.99
2022-10-03T11:02:39.333Z,66.84
2022-10-03T11:06:17.210Z,66.23
2022-10-03T11:09:47.830Z,65.60
2022-10-03T11:13:13.509Z,65.31
2022-10-03T11:16:34.711Z,64.70
2022-10-03T11:19:41.826Z,64.02
2022-10-03T11:23:13.964Z,63.22
2022-10-03T11:26:19.867Z,62.92
2022-10-03T11:29:40.970Z,62.14
2022-10-03T11:32:54.046Z,62.12
2022-10-03T11:36:14.746Z,62.15
2022-10-03T11:38:51.884Z,61.06
2022-10-03T11:41:35.078Z,59.73
2022-10-03T11:44:18.046Z,59.02
2022-10-03T11:47:14.885Z,58.03
2022-10-03T11:50:19.979Z,57.34
2022-10-03T11:53:08.415Z,56.63
2022-10-03T11:55:44.062Z,55.90
2022-10-03T11:58:34.440Z,54.94
2022-10-03T12:01:22.565Z,54.11
2022-10-03T12:04:01.150Z,53.24
2022-10-03T12:07:17.553Z,53.00
2022-10-03T12:10:02.875Z,52.16
2022-10-03T12:12:39.496Z,52.13
2022-10-03T12:15:29.247Z,51.78
2022-10-03T12:18:07.983Z,51.47
2022-10-03T12:20:59.728Z,51.79
2022-10-03T12:23:58.599Z,51.81
2022-10-03T12:26:43.300Z,51.67
2022-10-03T12:29:14.745Z,51.38
2022-10-03T12:31:55.298Z,51.50
2022-10-03T12:34:38.905Z,51.54
2022-10-03T12:37:29.853Z,51.88
2022-10-03T12:40:06.998Z,52.15
2022-10-03T12:42:42.318Z,51.64
2022-10-03T12:45:22.781Z,51.33
2022-10-03T12:48:30.862Z,51.21
2022-10-03T12:51:06.798Z,50.95
2022-10-03T12:53:48.542Z,50.63
2022-10-03T12:56:28.341Z,50.56
2022-10-03T12:59:28.215Z,50.04
2022-10-03T13:02:27.875Z,49.82
2022-10-03T13:05:29.400Z,49.64
2022-10-03T13:08:03.241Z,48.75
2022-10-03T13:10:41.892Z,48.13
2022-10-03T13:13:30.158Z,47.87
2022-10-03T13:16:21.074Z,47.42
2022-10-03T13:19:04.218Z,47.05
2022-10-03T13:22:03.487Z,46.43
2022-10-03T13:24:38.143Z,46.38
2022-10-03T13:27:22.724Z,47.08
2022-10-03T13:30:04.937Z,47.52
2022-10-03T13:32:36.094Z,47.02
2022-10-03T13:35:41.499Z,47.17
2022-10-03T13:38:46.921Z,47.16
2022-10-03T13:41:27.792Z,46.89
2022-10-03T13:44:02.788Z,46.37
2022-10-03T13:46:45.340Z,46.99
2022-10-03T13:49:23.072Z,46.90
2022-10-03T13:52:02.305Z,47.22
2022-10-03T13:55:00.307Z,48.13
2022-10-03T13:57:34.117Z,48.37
2022-10-03T14:00:09.661Z,48.22
2022-10-03T14:03:11.209Z,48.62
2022-10-03T14:05:55.597Z,49.16
2022-10-03T14:08:52.315Z,49.96
2022-10-03T14:11:36.576Z,49.96
2022-10-03T14:14:44.033Z,50.31
2022-10-03T14:17:18.219Z,50.37
2022-10-03T14:20:16.222Z,50.71
2022-10-03T14:22:58.950Z,50.95
2022-10-03T14:25:30.295Z,51.11
2022-10-03T14:28:04.722Z,51.39
2022-10-03T14:31:04.927Z,51.83
2022-10-03T14:33:42.339Z,51.84
2022-10-03T14:36:34.181Z,52.09
2022-10-03T14:39:22.116Z,52.85
2022-10-03T14:42:14.930Z,52.85
2022-10-03T14:44:47.953Z,53.45
2022-10-03T14:47:18.752Z,53.73
2022-10-03T14:49:58.666Z,53.53
2022-10-03T14:52:40.683Z,53.55
2022-10-03T14:55:16.125Z,53.82
2022-10-03T14:58:09.375Z,54.21
2022-10-03T15:00:45.288Z,54.07
2022-10-03T15:03:44.101Z,54.31
2022-10-03T15:06:34.158Z,54.54
2022-10-03T15:09:11.219Z,54.93
2022-10-03T15:11:49.085Z,55.45
2022-10-03T15:14:17.983Z,55.62
2022-10-03T15:16:52.682Z,56.02
2022-10-03T15:19:29.080Z,56.14
2022-10-03T15:22:08.487Z,56.29
2022-10-03T15:24:40.606Z,56.22
2022-10-03T15:27:14.761Z,56.18
2022-10-03T15:29:44.567Z,56.45
2022-10-03T15:32:25.355Z,55.90
2022-10-03T15:34:58.577Z,55.07
2022-10-03T15:37:33.721Z,54.78
2022-10-03T15:40:12.499Z,54.13
2022-10-03T15:42:51.268Z,54.16
2022-10-03T15:45:26.151Z,54.33
2022-10-03T15:47:56.581Z,55.05
2022-10-03T15:50:29.031Z,55.83
2022-10-03T15:53:17.928Z,56.37
2022-10-03T15:55:52.866Z,57.02
2022-10-03T15:58:29.940Z,57.49
2022-10-03T16:01:08.813Z,58.52
2022-10-03T16:03:47.243Z,59.27
2022-10-03T16:06:22.117Z,59.63
2022-10-03T16:09:14.659Z,60.35
2022-10-03T16:11:54.367Z,60.84
2022-10-03T16:14:27.278Z,61.12
2022-10-03T16:16:59.546Z,61.95
2022-10-03T16:19:34.006Z,62.29
2022-10-03T16:22:23.803Z,62.79
2022-10-03T16:25:05.400Z,63.09
2022-10-03T16:27:41.450Z,63.54
2022-10-03T16:30:21.960Z,64.02
2022-10-03T16:33:00.665Z,64.16
2022-10-03T16:35:36.202Z,64.54
2022-10-03T16:38:09.834Z,65.07
2022-10-03T16:40:38.945Z,64.95
2022-10-03T16:43:11.694Z,65.43
2022-10-03T16:45:45.478Z,65.90
2022-10-03T16:48:38.081Z,65.87
2022-10-03T16:51:16.917Z,66.37
2022-10-03T16:53:46.533Z,66.91
2022-10-03T16:56:18.953Z,67.16
2022-10-03T16:58:54.039Z,67.46
2022-10-03T17:01:33.119Z,67.90
2022-10-03T17:04:22.868Z,68.22
2022-10-03T17:06:57.258Z,68.52
2022-10-03T17:09:37.246Z,68.85
2022-10-03T17:12:13.713Z,69.18
2022-10-03T17:14:44.656Z,69.52
2022-10-03T17:17:30.261Z,70.04
2022-10-03T17:20:05.786Z,70.35
2022-10-03T17:22:41.767Z,70.49
2022-10-03T17:25:40.553Z,71.14
2022-10-03T17:28:16.466Z,71.75
2022-10-03T17:30:51.087Z,72.10
2022-10-03T17:33:24.447Z,72.55
2022-10-03T17:36:05.650Z,72.92
2022-10-03T17:38:50.036Z,73.20
2022-10-03T17:41:22.622Z,73.97
2022-10-03T17:44:07.819Z,74.07
2022-10-03T17:46:45.685Z,74.77
2022-10-03T17:49:23.305Z,74.36
2022-10-03T17:51:53.810Z,75.36
2022-10-03T17:54:27.508Z,75.17
2022-10-03T17:57:05.877Z,75.63
2022-10-03T17:59:44.401Z,76.41
2022-10-03T18:02:22.085Z,76.12
2022-10-03T18:05:01.577Z,76.99
2022-10-03T18:07:31.781Z,77.25
2022-10-03T18:10:00.153Z,76.76
2022-10-03T18:12:36.186Z,77.48
2022-10-03T18:15:41.212Z,77.59
2022-10-03T18:18:49.037Z,77.81
2022-10-03T18:21:28.782Z,78.26
2022-10-03T18:24:43.016Z,77.65
2022-10-03T18:27:40.975Z,78.37
2022-10-03T18:30:17.769Z,78.66
2022-10-03T18:32:46.954Z,78.95
2022-10-03T18:35:21.476Z,79.02
2022-10-03T18:38:06.931Z,78.75
2022-10-03T18:40:41.597Z,79.68
2022-10-03T18:43:32.880Z,79.84
2022-10-03T18:46:15.184Z,79.50
2022-10-03T18:51:54.461Z,79.79
2022-10-03T18:54:35.517Z,80.09
2022-10-03T18:57:15.887Z,80.79
2022-10-03T18:59:50.910Z,80.97
2022-10-03T19:02:28.025Z,81.01
2022-10-03T19:05:03.445Z,80.54
2022-10-03T19:07:38.898Z,80.72
2022-10-03T19:10:31.581Z,81.22
2022-10-03T19:13:10.927Z,81.02
2022-10-03T19:15:57.926Z,81.25
2022-10-03T19:18:33.563Z,81.63
2022-10-03T19:21:09.827Z,81.63
2022-10-03T19:23:43.635Z,81.88
2022-10-03T19:26:23.328Z,81.98
2022-10-03T19:28:55.472Z,82.25
2022-10-03T19:31:27.929Z,82.38
2022-10-03T19:34:03.345Z,83.05
2022-10-03T19:36:37.028Z,82.57
2022-10-03T19:39:07.547Z,82.69
2022-10-03T19:41:40.326Z,82.88
2022-10-03T19:44:10.550Z,83.40
2022-10-03T19:47:03.111Z,83.09
2022-10-03T19:49:51.562Z,82.95
2022-10-03T19:52:31.064Z,83.02
2022-10-03T19:55:13.642Z,83.35
2022-10-03T19:57:46.283Z,83.75
2022-10-03T20:00:30.704Z,83.77
2022-10-03T20:03:16.433Z,83.17
2022-10-03T20:05:54.128Z,83.15
2022-10-03T20:08:32.133Z,83.69
2022-10-03T20:11:15.563Z,83.29
2022-10-03T20:13:46.823Z,83.56
2022-10-03T20:16:17.350Z,83.56
2022-10-03T20:18:49.580Z,83.52
2022-10-03T20:21:21.879Z,83.58
2022-10-03T20:23:50.774Z,83.49
2022-10-03T20:26:32.066Z,83.80
2022-10-03T20:29:18.586Z,83.49
2022-10-03T20:31:47.823Z,83.62
2022-10-03T20:34:22.076Z,83.58
2022-10-03T20:36:55.471Z,83.33
2022-10-03T20:39:29.330Z,83.74
2022-10-03T20:42:05.048Z,83.82
2022-10-03T20:45:04.035Z,83.85
2022-10-03T20:47:49.481Z,83.75
2022-10-03T20:50:25.561Z,83.44
2022-10-03T20:52:58.981Z,83.90
2022-10-03T20:55:32.235Z,84.42
2022-10-03T20:58:14.228Z,84.10
2022-10-03T21:00:48.046Z,83.72
2022-10-03T21:03:29.833Z,83.79
2022-10-03T21:06:00.127Z,83.94
2022-10-03T21:08:34.140Z,83.75
2022-10-03T21:11:05.805Z,84.21
2022-10-03T21:13:42.441Z,84.54
2022-10-03T21:16:20.852Z,84.14
2022-10-03T21:18:51.490Z,83.87
2022-10-03T21:21:26.388Z,84.49
2022-10-03T21:24:04.035Z,84.40
2022-10-03T21:26:37.364Z,83.99
2022-10-03T21:29:29.649Z,84.02
2022-10-03T21:32:16.757Z,84.10
2022-10-03T21:34:53.735Z,84.51
2022-10-03T21:37:34.497Z,84.51
2022-10-03T21:40:19.361Z,84.54
2022-10-03T21:43:02.773Z,84.18
2022-10-03T21:45:42.496Z,84.60
2022-10-03T21:48:21.213Z,84.76
2022-10-03T21:50:58.273Z,84.57
2022-10-03T21:53:39.527Z,84.52
2022-10-03T21:56:31.034Z,84.12
2022-10-03T21:59:28.041Z,84.15
2022-10-03T22:02:07.427Z,84.38
2022-10-03T22:04:43.549Z,84.84
2022-10-03T22:07:16.713Z,84.21
2022-10-03T22:09:50.235Z,84.40
2022-10-03T22:12:19.211Z,84.59
2022-10-03T22:14:57.899Z,84.10
2022-10-03T22:17:36.479Z,84.54
2022-10-03T22:20:19.840Z,84.74
2022-10-03T22:23:17.245Z,84.07
2022-10-03T22:26:02.379Z,84.85
2022-10-03T22:28:43.195Z,84.61
2022-10-03T22:31:23.718Z,84.29
2022-10-03T22:34:08.530Z,84.27
2022-10-03T22:36:38.166Z,84.35
2022-10-03T22:39:11.539Z,84.63
2022-10-03T22:41:42.173Z,84.31
2022-10-03T22:44:13.778Z,84.42
2022-10-03T22:46:47.241Z,84.46
2022-10-03T22:49:21.340Z,84.31
2022-10-03T22:51:54.670Z,84.05
2022-10-03T22:54:24.984Z,84.70
2022-10-03T22:56:56.379Z,83.90
2022-10-03T22:59:28.437Z,83.94
2022-10-03T23:02:00.476Z,83.86
2022-10-03T23:04:36.492Z,84.69
2022-10-03T23:07:50.741Z,84.29
2022-10-03T23:10:36.527Z,83.84
2022-10-03T23:13:11.052Z,83.90
2022-10-03T23:15:42.812Z,84.31
2022-10-03T23:18:44.974Z,84.20
2022-10-03T23:21:14.830Z,84.40
2022-10-03T23:24:04.007Z,84.64
2022-10-03T23:27:11.965Z,84.03
2022-10-03T23:29:40.622Z,84.73
2022-10-03T23:32:10.299Z,84.61
2022-10-03T23:35:22.206Z,84.21
2022-10-03T23:37:51.637Z,84.40
2022-10-03T23:40:45.791Z,84.91
2022-10-03T23:43:35.738Z,84.31
2022-10-03T23:46:06.757Z,84.37
2022-10-03T23:48:45.152Z,84.69
2022-10-03T23:51:16.867Z,84.89
2022-10-03T23:53:51.381Z,85.05
2022-10-03T23:56:33.227Z,84.27
2022-10-03T23:59:17.454Z,84.48
